Brownsville South Padre Island International Airport
KBRO : now visible

Airfield :











YOU CAN JOIN US ON...

 
LOGIN :

Register | Disclaimer

   EN    FR    IT 

 









Legend :    VFR   Marginal VFR   IFR   Intensive IFR   Very Intensive IFR
Visi :
Ceiling :
>= 8 km
>= 3000ft
5 to 8 km
1000 to 3000 ft
1500m to 5 km
500 to 1000 ft
800 to 1500m
200 to 500 ft
< 800m
< 200 ft
Symbols :   Thunderstorms  Fog  Heavy snow  Heavy precipitations  Wind > 20 kt






- Airport Elevation : 22 ft
- IATA code : BRO


KBRO - Brownsville South Padre Island International

CURRENT METAR :
  • 151453Z 16009KT 10SM CLR 29/26 A3007 RMK AO2 SLP181 T02940256 50011

EXPIRED METARs :
  • 151353Z 15005KT 10SM CLR 28/26 A3007 RMK AO2 SLP182 T02830261
  • 151253Z 18003KT 10SM CLR 27/26 A3005 RMK AO2 SLP175 T02670256
  • 151153Z 13004KT 10SM SCT020 SCT026 26/25 A3004 RMK AO2 SLP170 T02610250 10267 20256 53004
  • 151053Z 14003KT 10SM CLR 26/24 A3003 RMK AO2 SLP166 T02610244

TAF KBRO
Valid from the 15 at 12:00 until the 16 at 12:00 UTC


151120Z 1512/1612 15005KT P6SM SKC
FM151500 14013KT P6SM FEW050
FM160200 16005KT P6SM FEW020
KZHU FIR / North America



MET'MAP, your aeronautical weather chart ! - Copyright ORBIFLY December 2007 - Disclaimer

ORBIFLY MET'MAP TEAM :

Programming & Development : Alexandra Zaïnal
Original concept : Baudouin d'Aumeries
Technical & hardware support : Manuel Goepfert
Assistance : Marc-Olivier Méhu




SOURCES & CREDITS :

   NOAA       Earth
Advisory